createdAt,value
2022-09-29T00:02:19.201Z,1.70
2022-09-29T00:06:01.222Z,3.05
2022-09-29T00:09:43.064Z,1.40
2022-09-29T00:13:25.016Z,1.88
2022-09-29T00:17:06.881Z,1.60
2022-09-29T00:21:04.583Z,3.10
2022-09-29T00:24:47.951Z,1.75
2022-09-29T00:28:30.571Z,1.20
2022-09-29T00:32:12.502Z,1.52
2022-09-29T00:36:02.301Z,1.52
2022-09-29T00:39:44.194Z,1.20
2022-09-29T00:43:49.163Z,1.65
2022-09-29T00:47:33.073Z,2.05
2022-09-29T00:51:16.413Z,3.28
2022-09-29T00:55:13.346Z,2.22
2022-09-29T00:59:03.081Z,2.15
2022-09-29T01:02:56.806Z,1.63
2022-09-29T01:06:44.347Z,2.50
2022-09-29T01:10:27.530Z,1.65
2022-09-29T01:14:10.961Z,1.73
2022-09-29T01:17:52.837Z,3.10
2022-09-29T01:21:46.952Z,1.13
2022-09-29T01:26:05.667Z,1.50
2022-09-29T01:29:55.562Z,1.15
2022-09-29T01:34:03.105Z,2.72
2022-09-29T01:37:48.029Z,1.08
2022-09-29T01:42:02.495Z,1.30
2022-09-29T01:46:08.776Z,1.00
2022-09-29T01:50:01.961Z,1.65
2022-09-29T01:53:50.478Z,1.45
2022-09-29T01:57:42.589Z,1.50
2022-09-29T02:01:29.455Z,1.58
2022-09-29T02:09:03.210Z,0.88
2022-09-29T02:12:46.679Z,2.28
2022-09-29T02:16:32.094Z,1.67
2022-09-29T02:20:14.650Z,1.15
2022-09-29T02:23:57.553Z,2.50
2022-09-29T02:27:40.527Z,1.20
2022-09-29T02:31:26.306Z,1.58
2022-09-29T02:35:11.807Z,1.38
2022-09-29T02:39:03.337Z,2.13
2022-09-29T02:42:53.448Z,1.58
2022-09-29T02:46:50.046Z,1.42
2022-09-29T02:50:37.424Z,0.98
2022-09-29T02:54:40.193Z,1.00
2022-09-29T02:58:54.050Z,2.17
2022-09-29T03:02:37.137Z,1.83
2022-09-29T03:06:21.596Z,1.38
2022-09-29T03:10:04.235Z,3.05
2022-09-29T03:13:46.064Z,2.90
2022-09-29T03:17:28.012Z,1.80
2022-09-29T03:21:09.900Z,1.70
2022-09-29T03:24:51.853Z,1.38
2022-09-29T03:28:33.881Z,1.35
2022-09-29T03:32:15.803Z,1.20
2022-09-29T03:35:57.694Z,1.75
2022-09-29T03:39:39.671Z,2.05
2022-09-29T03:43:21.566Z,1.67
2022-09-29T03:47:03.490Z,1.30
2022-09-29T03:50:46.279Z,1.50
2022-09-29T03:54:28.234Z,1.80
2022-09-29T03:58:10.061Z,2.92
2022-09-29T04:01:51.997Z,2.80
2022-09-29T04:05:38.862Z,1.23
2022-09-29T04:09:20.821Z,1.77
2022-09-29T04:13:03.427Z,1.23
2022-09-29T04:16:45.653Z,1.52
2022-09-29T04:20:27.813Z,3.58
2022-09-29T04:24:09.767Z,1.50
2022-09-29T04:27:51.600Z,1.55
2022-09-29T04:31:33.738Z,1.52
2022-09-29T04:35:15.777Z,1.60
2022-09-29T04:38:57.642Z,1.80
2022-09-29T04:42:39.731Z,1.40
2022-09-29T04:46:21.926Z,3.55
2022-09-29T04:50:04.161Z,1.35
2022-09-29T04:53:46.110Z,1.70
2022-09-29T04:57:27.943Z,1.45
2022-09-29T05:01:15.209Z,1.25
2022-09-29T05:04:57.124Z,1.85
2022-09-29T05:08:39.068Z,2.45
2022-09-29T05:12:21.218Z,2.13
2022-09-29T05:16:04.606Z,1.60
2022-09-29T05:19:46.540Z,1.48
2022-09-29T05:23:29.560Z,1.30
2022-09-29T05:27:11.476Z,1.73
2022-09-29T05:30:53.346Z,1.10
2022-09-29T05:34:35.239Z,1.30
2022-09-29T05:38:17.085Z,1.40
2022-09-29T05:41:59.754Z,1.15
2022-09-29T05:45:42.626Z,1.30
2022-09-29T05:49:24.562Z,1.48
2022-09-29T05:53:06.439Z,1.83
2022-09-29T05:56:48.279Z,1.08
2022-09-29T06:00:31.605Z,0.80
2022-09-29T06:04:13.509Z,2.35
2022-09-29T06:07:55.703Z,0.90
2022-09-29T06:11:37.531Z,1.00
2022-09-29T06:15:19.515Z,1.48
2022-09-29T06:19:01.950Z,1.65
2022-09-29T06:22:43.892Z,1.10
2022-09-29T06:26:27.117Z,1.40
2022-09-29T06:30:09.737Z,1.00
2022-09-29T06:33:51.796Z,1.50
2022-09-29T06:37:36.664Z,1.52
2022-09-29T06:41:19.509Z,2.75
2022-09-29T06:45:01.565Z,2.55
2022-09-29T06:48:43.399Z,1.38
2022-09-29T06:52:29.171Z,2.33
2022-09-29T06:56:12.896Z,1.20
2022-09-29T06:59:54.849Z,0.40
2022-09-29T07:03:36.746Z,3.38
2022-09-29T07:07:18.607Z,0.60
2022-09-29T07:11:00.472Z,0.80
2022-09-29T07:14:42.356Z,3.33
2022-09-29T07:18:24.336Z,0.45
2022-09-29T07:22:07.115Z,1.02
2022-09-29T07:25:51.955Z,1.40
2022-09-29T07:29:35.185Z,1.05
2022-09-29T07:33:17.706Z,1.42
2022-09-29T07:37:00.480Z,0.75
2022-09-29T07:40:42.381Z,1.35
2022-09-29T07:44:24.354Z,1.25
2022-09-29T07:48:06.217Z,1.20
2022-09-29T07:51:51.436Z,2.13
2022-09-29T07:55:33.400Z,1.38
2022-09-29T07:59:15.308Z,7.22
2022-09-29T08:03:07.489Z,3.25
2022-09-29T08:06:49.585Z,1.60
2022-09-29T08:10:46.912Z,1.40
2022-09-29T08:14:31.494Z,1.20
2022-09-29T08:18:13.341Z,2.47
2022-09-29T08:21:55.206Z,2.67
2022-09-29T08:25:37.030Z,3.42
2022-09-29T08:29:18.961Z,1.80
2022-09-29T08:33:00.816Z,1.40
2022-09-29T08:36:43.515Z,1.60
2022-09-29T08:40:29.244Z,2.40
2022-09-29T08:44:38.468Z,2.03
2022-09-29T08:48:27.845Z,1.50
2022-09-29T08:52:17.196Z,2.25
2022-09-29T08:56:04.715Z,1.70
2022-09-29T08:59:58.279Z,4.28
2022-09-29T09:03:52.151Z,1.85
2022-09-29T09:08:00.573Z,1.33
2022-09-29T09:12:26.884Z,3.17
2022-09-29T09:16:34.811Z,2.15
2022-09-29T09:20:54.782Z,1.83
2022-09-29T09:24:47.699Z,1.80
2022-09-29T09:28:37.690Z,1.77
2022-09-29T09:32:27.552Z,1.30
2022-09-29T09:36:21.639Z,2.10
2022-09-29T09:40:21.031Z,1.98
2022-09-29T09:44:13.970Z,1.92
2022-09-29T09:48:10.539Z,1.65
2022-09-29T09:56:31.903Z,2.20
2022-09-29T10:00:32.425Z,2.75
2022-09-29T10:04:14.598Z,2.08
2022-09-29T10:07:56.717Z,1.10
2022-09-29T10:11:38.697Z,2.60
2022-09-29T10:15:31.239Z,3.08
2022-09-29T10:19:13.364Z,1.10
2022-09-29T10:22:59.183Z,1.63
2022-09-29T10:26:44.648Z,1.10
2022-09-29T10:30:36.301Z,1.02
2022-09-29T10:34:24.724Z,0.90
2022-09-29T10:38:15.732Z,0.70
2022-09-29T10:41:57.587Z,1.27
2022-09-29T10:45:58.603Z,1.23
2022-09-29T10:49:41.234Z,1.60
2022-09-29T10:53:38.726Z,0.90
2022-09-29T10:57:26.066Z,1.90
2022-09-29T11:01:16.965Z,0.70
2022-09-29T11:05:05.515Z,1.30
2022-09-29T11:09:15.723Z,1.92
2022-09-29T11:13:01.138Z,1.55
2022-09-29T11:16:54.036Z,0.90
2022-09-29T11:20:37.289Z,1.20
2022-09-29T11:24:29.009Z,0.98
2022-09-29T11:28:42.340Z,1.05
2022-09-29T11:33:01.226Z,0.98
2022-09-29T11:37:03.023Z,1.67
2022-09-29T11:40:57.137Z,2.03
2022-09-29T11:44:44.902Z,1.10
2022-09-29T11:48:44.040Z,1.23
2022-09-29T11:52:56.840Z,1.65
2022-09-29T11:57:00.807Z,1.23
2022-09-29T12:01:10.372Z,1.10
2022-09-29T12:05:18.308Z,1.25
2022-09-29T12:09:33.366Z,0.90
2022-09-29T12:13:27.319Z,0.85
2022-09-29T12:17:18.284Z,1.00
2022-09-29T12:21:03.791Z,2.05
2022-09-29T12:24:55.329Z,0.82
2022-09-29T12:28:42.974Z,1.23
2022-09-29T12:32:37.568Z,1.38
2022-09-29T12:36:46.696Z,0.90
2022-09-29T12:40:40.688Z,0.60
2022-09-29T12:44:30.928Z,0.77
2022-09-29T12:48:34.394Z,0.65
2022-09-29T12:52:22.278Z,1.20
2022-09-29T12:56:22.974Z,0.57
2022-09-29T13:00:15.935Z,1.10
2022-09-29T13:04:04.227Z,0.73
2022-09-29T13:08:23.629Z,1.10
2022-09-29T13:12:09.385Z,2.05
2022-09-29T13:16:18.319Z,1.25
2022-09-29T13:20:21.133Z,1.20
2022-09-29T13:24:09.150Z,1.20
2022-09-29T13:27:54.003Z,1.25
2022-09-29T13:31:39.836Z,1.52
2022-09-29T13:35:24.703Z,1.80
2022-09-29T13:39:25.658Z,0.90
2022-09-29T13:43:59.635Z,1.17
2022-09-29T13:47:50.178Z,0.95
2022-09-29T13:51:49.976Z,0.75
2022-09-29T13:55:51.804Z,1.75
2022-09-29T13:59:35.225Z,1.27
2022-09-29T14:03:36.627Z,1.30
2022-09-29T14:07:39.432Z,0.95
2022-09-29T14:11:43.201Z,1.38
2022-09-29T14:15:26.758Z,1.02
2022-09-29T14:19:14.012Z,1.13
2022-09-29T14:23:11.147Z,2.13
2022-09-29T14:26:54.671Z,2.38
2022-09-29T14:30:54.985Z,1.33
2022-09-29T14:34:37.022Z,2.45
2022-09-29T14:38:27.713Z,3.25
2022-09-29T14:42:17.088Z,1.05
2022-09-29T14:46:26.923Z,1.30
2022-09-29T14:50:52.219Z,0.90
2022-09-29T14:55:02.011Z,1.00
2022-09-29T14:59:02.749Z,1.70
2022-09-29T15:02:59.732Z,1.02
2022-09-29T15:06:48.718Z,2.10
2022-09-29T15:10:41.210Z,2.00
2022-09-29T15:14:28.487Z,2.28
2022-09-29T15:18:38.172Z,1.20
2022-09-29T15:22:53.881Z,1.33
2022-09-29T15:26:36.995Z,1.73
2022-09-29T15:30:21.149Z,1.13
2022-09-29T15:34:04.637Z,1.60
2022-09-29T15:38:09.993Z,1.35
2022-09-29T15:42:01.512Z,1.45
2022-09-29T15:45:53.392Z,1.85
2022-09-29T15:49:39.812Z,1.48
2022-09-29T15:53:24.488Z,1.20
2022-09-29T15:57:25.417Z,2.00
2022-09-29T16:01:08.624Z,1.40
2022-09-29T16:04:55.224Z,1.42
2022-09-29T16:08:46.158Z,1.35
2022-09-29T16:12:30.322Z,2.78
2022-09-29T16:16:12.645Z,1.65
2022-09-29T16:19:54.718Z,1.58
2022-09-29T16:23:42.234Z,2.22
2022-09-29T16:28:00.767Z,1.92
2022-09-29T16:31:44.647Z,2.60
2022-09-29T16:36:07.025Z,1.73
2022-09-29T16:39:49.625Z,1.50
2022-09-29T16:43:31.949Z,1.95
2022-09-29T16:47:15.684Z,2.90
2022-09-29T16:51:08.345Z,1.90
2022-09-29T16:55:17.133Z,1.80
2022-09-29T16:59:07.690Z,1.85
2022-09-29T17:02:57.728Z,1.67
2022-09-29T17:06:47.589Z,2.17
2022-09-29T17:10:30.303Z,1.95
2022-09-29T17:14:13.628Z,2.15
2022-09-29T17:17:55.430Z,2.33
2022-09-29T17:21:38.038Z,2.28
2022-09-29T17:25:19.995Z,2.42
2022-09-29T17:29:02.503Z,2.00
2022-09-29T17:32:46.778Z,2.88
2022-09-29T17:36:29.073Z,2.45
2022-09-29T17:40:22.378Z,2.50
2022-09-29T17:44:06.138Z,2.50
2022-09-29T17:47:49.856Z,2.10
2022-09-29T17:51:32.008Z,1.98
2022-09-29T17:55:13.928Z,3.38
2022-09-29T17:58:55.899Z,3.03
2022-09-29T18:02:37.743Z,2.30
2022-09-29T18:06:21.965Z,2.80
2022-09-29T18:10:24.310Z,3.00
2022-09-29T18:14:06.161Z,3.80
2022-09-29T18:17:48.098Z,3.17
2022-09-29T18:21:31.903Z,3.63
2022-09-29T18:25:15.352Z,3.72
2022-09-29T18:28:59.126Z,2.90
2022-09-29T18:32:40.958Z,5.35
2022-09-29T18:36:23.001Z,4.20
2022-09-29T18:40:05.190Z,4.60
2022-09-29T18:43:47.974Z,5.45
2022-09-29T18:47:29.848Z,3.95
2022-09-29T18:51:13.714Z,4.22
2022-09-29T18:54:55.678Z,4.20
2022-09-29T18:58:38.199Z,4.90
2022-09-29T19:02:20.230Z,5.85
2022-09-29T19:06:02.591Z,13.88
2022-09-29T19:09:44.490Z,14.07
2022-09-29T19:13:26.976Z,11.55
2022-09-29T19:17:08.801Z,12.82
2022-09-29T19:20:51.884Z,8.77
2022-09-29T19:24:33.743Z,8.63
2022-09-29T19:28:16.674Z,9.73
2022-09-29T19:31:59.087Z,7.40
2022-09-29T19:35:46.678Z,7.15
2022-09-29T19:39:31.424Z,8.85
2022-09-29T19:43:14.486Z,5.05
2022-09-29T19:46:56.379Z,3.88
2022-09-29T19:50:56.825Z,3.88
2022-09-29T19:54:40.290Z,4.10
2022-09-29T19:58:23.361Z,4.35
2022-09-29T20:02:12.976Z,4.38
2022-09-29T20:06:03.288Z,5.40
2022-09-29T20:09:45.264Z,4.78
2022-09-29T20:13:27.281Z,3.75
2022-09-29T20:17:09.539Z,5.30
2022-09-29T20:20:52.443Z,3.22
2022-09-29T20:24:34.257Z,3.40
2022-09-29T20:28:16.207Z,4.30
2022-09-29T20:31:58.054Z,7.57
2022-09-29T20:35:40.405Z,3.10
2022-09-29T20:39:24.643Z,3.65
2022-09-29T20:43:06.898Z,4.47
2022-09-29T20:46:50.258Z,4.60
2022-09-29T20:50:32.188Z,4.78
2022-09-29T20:54:14.705Z,4.15
2022-09-29T20:58:00.452Z,6.63
2022-09-29T21:01:43.538Z,5.03
2022-09-29T21:05:25.588Z,5.43
2022-09-29T21:09:11.312Z,5.70
2022-09-29T21:12:54.412Z,5.40
2022-09-29T21:16:37.019Z,4.68
2022-09-29T21:20:18.929Z,4.63
2022-09-29T21:24:02.702Z,5.40
2022-09-29T21:27:44.617Z,6.22
2022-09-29T21:31:29.145Z,4.88
2022-09-29T21:35:11.149Z,4.50
2022-09-29T21:38:53.556Z,4.55
2022-09-29T21:42:35.420Z,4.30
2022-09-29T21:46:23.916Z,3.60
2022-09-29T21:50:07.013Z,4.20
2022-09-29T21:53:48.980Z,3.78
2022-09-29T21:57:30.862Z,4.57
2022-09-29T22:01:13.278Z,3.90
2022-09-29T22:04:55.158Z,6.38
2022-09-29T22:08:37.010Z,5.00
2022-09-29T22:12:18.884Z,5.40
2022-09-29T22:16:05.885Z,5.25
2022-09-29T22:19:47.834Z,4.72
2022-09-29T22:23:30.304Z,5.28
2022-09-29T22:27:12.156Z,5.25
2022-09-29T22:30:54.096Z,4.57
2022-09-29T22:34:36.048Z,5.03
2022-09-29T22:38:17.913Z,7.40
2022-09-29T22:42:01.307Z,4.82
2022-09-29T22:45:48.158Z,4.18
2022-09-29T22:53:12.213Z,3.72
2022-09-29T22:56:55.255Z,5.05
2022-09-29T23:00:37.964Z,3.60
2022-09-29T23:04:19.862Z,4.38
2022-09-29T23:08:02.389Z,7.78
2022-09-29T23:11:44.258Z,4.50
2022-09-29T23:15:26.184Z,7.97
2022-09-29T23:19:08.098Z,3.95
2022-09-29T23:22:49.967Z,4.45
2022-09-29T23:26:31.921Z,4.80
2022-09-29T23:30:13.829Z,4.68
2022-09-29T23:34:00.202Z,3.85
2022-09-29T23:38:00.508Z,5.53
2022-09-29T23:41:50.390Z,3.97
2022-09-29T23:45:32.236Z,5.70
2022-09-29T23:49:17.685Z,3.20
2022-09-29T23:53:00.377Z,3.88
2022-09-29T23:56:42.585Z,5.47
